sensor_id;sensor_type;location;lat;lon;timestamp;P1;durP1;ratioP1;P2;durP2;ratioP2
75340;SDS011;64931;47.562;18.920;2023-04-24T00:00:20;9.40;;;6.60;;
75340;SDS011;64931;47.562;18.920;2023-04-24T00:02:46;8.20;;;5.70;;
75340;SDS011;64931;47.562;18.920;2023-04-24T00:05:12;9.30;;;6.10;;
75340;SDS011;64931;47.562;18.920;2023-04-24T00:07:39;8.40;;;5.90;;
75340;SDS011;64931;47.562;18.920;2023-04-24T00:10:05;9.00;;;5.90;;
75340;SDS011;64931;47.562;18.920;2023-04-24T00:12:31;10.40;;;6.00;;
75340;SDS011;64931;47.562;18.920;2023-04-24T00:14:57;10.80;;;5.80;;
75340;SDS011;64931;47.562;18.920;2023-04-24T00:17:22;9.30;;;5.50;;
75340;SDS011;64931;47.562;18.920;2023-04-24T00:19:48;10.40;;;5.80;;
75340;SDS011;64931;47.562;18.920;2023-04-24T00:22:16;8.70;;;5.40;;
75340;SDS011;64931;47.562;18.920;2023-04-24T00:24:42;7.90;;;5.70;;
75340;SDS011;64931;47.562;18.920;2023-04-24T00:27:08;10.80;;;6.10;;
75340;SDS011;64931;47.562;18.920;2023-04-24T00:29:33;9.60;;;5.90;;
75340;SDS011;64931;47.562;18.920;2023-04-24T00:31:58;11.00;;;5.60;;
75340;SDS011;64931;47.562;18.920;2023-04-24T00:34:24;7.50;;;5.60;;
75340;SDS011;64931;47.562;18.920;2023-04-24T00:36:49;11.20;;;5.30;;
75340;SDS011;64931;47.562;18.920;2023-04-24T00:39:20;12.60;;;6.10;;
75340;SDS011;64931;47.562;18.920;2023-04-24T00:41:46;10.00;;;5.50;;
75340;SDS011;64931;47.562;18.920;2023-04-24T00:44:13;9.40;;;6.50;;
75340;SDS011;64931;47.562;18.920;2023-04-24T00:46:39;10.00;;;6.20;;
75340;SDS011;64931;47.562;18.920;2023-04-24T00:49:05;8.30;;;5.60;;
75340;SDS011;64931;47.562;18.920;2023-04-24T00:51:31;8.70;;;5.90;;
75340;SDS011;64931;47.562;18.920;2023-04-24T00:53:58;9.70;;;6.40;;
75340;SDS011;64931;47.562;18.920;2023-04-24T00:56:24;10.40;;;6.70;;
75340;SDS011;64931;47.562;18.920;2023-04-24T00:58:50;11.10;;;5.80;;
75340;SDS011;64931;47.562;18.920;2023-04-24T01:01:15;8.80;;;6.20;;
75340;SDS011;64931;47.562;18.920;2023-04-24T01:03:41;9.00;;;5.40;;
75340;SDS011;64931;47.562;18.920;2023-04-24T01:06:07;10.30;;;5.70;;
75340;SDS011;64931;47.562;18.920;2023-04-24T01:08:34;8.70;;;6.20;;
75340;SDS011;64931;47.562;18.920;2023-04-24T01:11:00;8.50;;;5.70;;
75340;SDS011;64931;47.562;18.920;2023-04-24T01:13:28;8.00;;;5.80;;
75340;SDS011;64931;47.562;18.920;2023-04-24T01:15:54;9.90;;;5.90;;
75340;SDS011;64931;47.562;18.920;2023-04-24T01:18:19;9.10;;;5.40;;
75340;SDS011;64931;47.562;18.920;2023-04-24T01:20:46;9.10;;;5.20;;
75340;SDS011;64931;47.562;18.920;2023-04-24T01:23:16;8.10;;;5.70;;
75340;SDS011;64931;47.562;18.920;2023-04-24T01:25:42;10.50;;;6.10;;
75340;SDS011;64931;47.562;18.920;2023-04-24T01:28:08;7.50;;;5.80;;
75340;SDS011;64931;47.562;18.920;2023-04-24T01:30:33;8.90;;;5.50;;
75340;SDS011;64931;47.562;18.920;2023-04-24T01:32:59;10.90;;;5.70;;
75340;SDS011;64931;47.562;18.920;2023-04-24T01:35:24;8.10;;;5.40;;
75340;SDS011;64931;47.562;18.920;2023-04-24T01:37:50;9.70;;;6.10;;
75340;SDS011;64931;47.562;18.920;2023-04-24T01:40:15;10.10;;;5.70;;
75340;SDS011;64931;47.562;18.920;2023-04-24T01:42:41;9.70;;;6.70;;
75340;SDS011;64931;47.562;18.920;2023-04-24T01:45:07;10.10;;;6.30;;
75340;SDS011;64931;47.562;18.920;2023-04-24T01:47:35;10.00;;;6.70;;
75340;SDS011;64931;47.562;18.920;2023-04-24T01:50:01;10.80;;;6.30;;
75340;SDS011;64931;47.562;18.920;2023-04-24T01:52:28;10.30;;;6.10;;
75340;SDS011;64931;47.562;18.920;2023-04-24T01:54:56;7.90;;;6.40;;
75340;SDS011;64931;47.562;18.920;2023-04-24T01:57:22;9.20;;;6.60;;
75340;SDS011;64931;47.562;18.920;2023-04-24T01:59:47;8.20;;;5.70;;
75340;SDS011;64931;47.562;18.920;2023-04-24T02:02:12;9.40;;;5.90;;
75340;SDS011;64931;47.562;18.920;2023-04-24T02:04:39;9.10;;;6.40;;
75340;SDS011;64931;47.562;18.920;2023-04-24T02:07:04;7.90;;;5.70;;
75340;SDS011;64931;47.562;18.920;2023-04-24T02:09:30;8.60;;;5.60;;
75340;SDS011;64931;47.562;18.920;2023-04-24T02:11:55;10.20;;;6.00;;
75340;SDS011;64931;47.562;18.920;2023-04-24T02:14:21;9.90;;;6.20;;
75340;SDS011;64931;47.562;18.920;2023-04-24T02:16:46;8.60;;;5.80;;
75340;SDS011;64931;47.562;18.920;2023-04-24T02:19:12;9.00;;;6.10;;
75340;SDS011;64931;47.562;18.920;2023-04-24T02:21:37;10.00;;;6.50;;
75340;SDS011;64931;47.562;18.920;2023-04-24T02:24:03;8.40;;;6.20;;
75340;SDS011;64931;47.562;18.920;2023-04-24T02:26:28;10.10;;;5.80;;
75340;SDS011;64931;47.562;18.920;2023-04-24T02:28:53;9.00;;;7.00;;
75340;SDS011;64931;47.562;18.920;2023-04-24T02:31:19;13.30;;;7.20;;
75340;SDS011;64931;47.562;18.920;2023-04-24T02:33:44;8.50;;;6.50;;
75340;SDS011;64931;47.562;18.920;2023-04-24T02:36:10;9.70;;;6.60;;
75340;SDS011;64931;47.562;18.920;2023-04-24T02:38:35;9.00;;;6.00;;
75340;SDS011;64931;47.562;18.920;2023-04-24T02:41:01;8.90;;;6.10;;
75340;SDS011;64931;47.562;18.920;2023-04-24T02:43:27;10.60;;;6.40;;
75340;SDS011;64931;47.562;18.920;2023-04-24T02:45:53;10.10;;;7.50;;
75340;SDS011;64931;47.562;18.920;2023-04-24T02:48:18;11.30;;;7.30;;
75340;SDS011;64931;47.562;18.920;2023-04-24T02:50:46;12.80;;;7.40;;
75340;SDS011;64931;47.562;18.920;2023-04-24T02:53:11;9.00;;;6.60;;
75340;SDS011;64931;47.562;18.920;2023-04-24T02:55:37;9.10;;;7.30;;
75340;SDS011;64931;47.562;18.920;2023-04-24T02:58:02;12.60;;;7.60;;
75340;SDS011;64931;47.562;18.920;2023-04-24T03:00:27;11.90;;;7.60;;
75340;SDS011;64931;47.562;18.920;2023-04-24T03:02:53;12.50;;;8.20;;
75340;SDS011;64931;47.562;18.920;2023-04-24T03:05:18;10.00;;;8.00;;
75340;SDS011;64931;47.562;18.920;2023-04-24T03:07:43;13.10;;;7.40;;
75340;SDS011;64931;47.562;18.920;2023-04-24T03:10:10;9.40;;;7.60;;
75340;SDS011;64931;47.562;18.920;2023-04-24T03:12:35;10.80;;;8.40;;
75340;SDS011;64931;47.562;18.920;2023-04-24T03:15:01;15.00;;;9.10;;
75340;SDS011;64931;47.562;18.920;2023-04-24T03:17:26;8.70;;;7.10;;
75340;SDS011;64931;47.562;18.920;2023-04-24T03:19:52;9.70;;;7.30;;
75340;SDS011;64931;47.562;18.920;2023-04-24T03:22:17;10.60;;;6.80;;
75340;SDS011;64931;47.562;18.920;2023-04-24T03:24:43;11.50;;;7.30;;
75340;SDS011;64931;47.562;18.920;2023-04-24T03:27:08;11.60;;;7.10;;
75340;SDS011;64931;47.562;18.920;2023-04-24T03:29:33;11.10;;;8.10;;
75340;SDS011;64931;47.562;18.920;2023-04-24T03:31:59;9.80;;;7.10;;
75340;SDS011;64931;47.562;18.920;2023-04-24T03:34:24;12.80;;;6.90;;
75340;SDS011;64931;47.562;18.920;2023-04-24T03:36:50;8.40;;;6.20;;
75340;SDS011;64931;47.562;18.920;2023-04-24T03:39:15;8.40;;;5.80;;
75340;SDS011;64931;47.562;18.920;2023-04-24T03:41:41;8.50;;;5.40;;
75340;SDS011;64931;47.562;18.920;2023-04-24T03:44:06;9.30;;;5.70;;
75340;SDS011;64931;47.562;18.920;2023-04-24T03:46:31;8.50;;;5.60;;
75340;SDS011;64931;47.562;18.920;2023-04-24T03:48:57;11.40;;;6.50;;
75340;SDS011;64931;47.562;18.920;2023-04-24T03:51:22;7.60;;;5.40;;
75340;SDS011;64931;47.562;18.920;2023-04-24T03:53:48;11.70;;;6.70;;
75340;SDS011;64931;47.562;18.920;2023-04-24T03:56:14;8.20;;;6.10;;
75340;SDS011;64931;47.562;18.920;2023-04-24T03:58:39;10.40;;;6.90;;
75340;SDS011;64931;47.562;18.920;2023-04-24T04:01:05;12.30;;;7.50;;
75340;SDS011;64931;47.562;18.920;2023-04-24T04:03:31;9.50;;;6.30;;
75340;SDS011;64931;47.562;18.920;2023-04-24T04:05:56;9.70;;;7.30;;
75340;SDS011;64931;47.562;18.920;2023-04-24T04:08:22;9.10;;;6.50;;
75340;SDS011;64931;47.562;18.920;2023-04-24T04:10:47;10.90;;;6.80;;
75340;SDS011;64931;47.562;18.920;2023-04-24T04:13:13;10.60;;;7.00;;
75340;SDS011;64931;47.562;18.920;2023-04-24T04:15:38;9.80;;;7.30;;
75340;SDS011;64931;47.562;18.920;2023-04-24T04:18:04;10.10;;;7.40;;
75340;SDS011;64931;47.562;18.920;2023-04-24T04:20:30;10.90;;;7.10;;
75340;SDS011;64931;47.562;18.920;2023-04-24T04:22:55;11.30;;;7.60;;
75340;SDS011;64931;47.562;18.920;2023-04-24T04:25:21;9.20;;;7.30;;
75340;SDS011;64931;47.562;18.920;2023-04-24T04:27:48;15.00;;;8.60;;
75340;SDS011;64931;47.562;18.920;2023-04-24T04:30:13;12.30;;;8.40;;
75340;SDS011;64931;47.562;18.920;2023-04-24T04:32:40;13.20;;;8.00;;
75340;SDS011;64931;47.562;18.920;2023-04-24T04:35:05;10.00;;;7.90;;
75340;SDS011;64931;47.562;18.920;2023-04-24T04:37:34;13.70;;;8.80;;
75340;SDS011;64931;47.562;18.920;2023-04-24T04:39:59;12.00;;;8.60;;
75340;SDS011;64931;47.562;18.920;2023-04-24T04:42:25;12.60;;;8.50;;
75340;SDS011;64931;47.562;18.920;2023-04-24T04:44:52;11.50;;;7.80;;
75340;SDS011;64931;47.562;18.920;2023-04-24T04:47:18;13.60;;;7.80;;
75340;SDS011;64931;47.562;18.920;2023-04-24T04:49:46;11.10;;;8.70;;
75340;SDS011;64931;47.562;18.920;2023-04-24T04:52:13;12.50;;;8.00;;
75340;SDS011;64931;47.562;18.920;2023-04-24T04:54:38;13.30;;;8.00;;
75340;SDS011;64931;47.562;18.920;2023-04-24T04:57:04;10.70;;;8.20;;
75340;SDS011;64931;47.562;18.920;2023-04-24T04:59:30;10.60;;;8.40;;
75340;SDS011;64931;47.562;18.920;2023-04-24T05:01:55;10.50;;;6.80;;
75340;SDS011;64931;47.562;18.920;2023-04-24T05:04:21;10.40;;;7.10;;
75340;SDS011;64931;47.562;18.920;2023-04-24T05:06:46;10.80;;;7.80;;
75340;SDS011;64931;47.562;18.920;2023-04-24T05:09:12;13.40;;;8.00;;
75340;SDS011;64931;47.562;18.920;2023-04-24T05:11:38;13.30;;;7.90;;
75340;SDS011;64931;47.562;18.920;2023-04-24T05:14:03;10.30;;;9.00;;
75340;SDS011;64931;47.562;18.920;2023-04-24T05:16:28;11.80;;;8.20;;
75340;SDS011;64931;47.562;18.920;2023-04-24T05:18:54;13.90;;;8.80;;
75340;SDS011;64931;47.562;18.920;2023-04-24T05:21:19;10.30;;;8.30;;
75340;SDS011;64931;47.562;18.920;2023-04-24T05:23:45;12.00;;;8.90;;
75340;SDS011;64931;47.562;18.920;2023-04-24T05:26:10;12.80;;;8.80;;
75340;SDS011;64931;47.562;18.920;2023-04-24T05:28:36;14.90;;;9.20;;
75340;SDS011;64931;47.562;18.920;2023-04-24T05:31:02;14.80;;;9.60;;
75340;SDS011;64931;47.562;18.920;2023-04-24T05:33:28;13.20;;;8.90;;
75340;SDS011;64931;47.562;18.920;2023-04-24T05:35:53;12.20;;;8.70;;
75340;SDS011;64931;47.562;18.920;2023-04-24T05:38:19;12.20;;;8.40;;
75340;SDS011;64931;47.562;18.920;2023-04-24T05:40:45;14.20;;;9.20;;
75340;SDS011;64931;47.562;18.920;2023-04-24T05:43:11;15.80;;;8.90;;
75340;SDS011;64931;47.562;18.920;2023-04-24T05:45:37;12.50;;;7.50;;
75340;SDS011;64931;47.562;18.920;2023-04-24T05:48:03;11.60;;;7.60;;
75340;SDS011;64931;47.562;18.920;2023-04-24T05:50:28;11.80;;;7.10;;
75340;SDS011;64931;47.562;18.920;2023-04-24T05:52:54;13.30;;;8.70;;
75340;SDS011;64931;47.562;18.920;2023-04-24T05:55:19;12.90;;;9.10;;
75340;SDS011;64931;47.562;18.920;2023-04-24T05:57:45;11.60;;;8.60;;
75340;SDS011;64931;47.562;18.920;2023-04-24T06:00:11;14.00;;;9.40;;
75340;SDS011;64931;47.562;18.920;2023-04-24T06:02:37;10.20;;;8.50;;
75340;SDS011;64931;47.562;18.920;2023-04-24T06:05:03;11.80;;;9.50;;
75340;SDS011;64931;47.562;18.920;2023-04-24T06:07:30;10.20;;;8.80;;
75340;SDS011;64931;47.562;18.920;2023-04-24T06:09:56;10.70;;;8.50;;
75340;SDS011;64931;47.562;18.920;2023-04-24T06:12:21;11.80;;;8.50;;
75340;SDS011;64931;47.562;18.920;2023-04-24T06:14:47;11.70;;;8.70;;
75340;SDS011;64931;47.562;18.920;2023-04-24T06:17:13;12.30;;;9.20;;
75340;SDS011;64931;47.562;18.920;2023-04-24T06:19:38;12.70;;;8.70;;
75340;SDS011;64931;47.562;18.920;2023-04-24T06:22:04;12.20;;;8.50;;
75340;SDS011;64931;47.562;18.920;2023-04-24T06:24:29;10.50;;;7.50;;
75340;SDS011;64931;47.562;18.920;2023-04-24T06:26:55;10.90;;;8.30;;
75340;SDS011;64931;47.562;18.920;2023-04-24T06:29:22;10.60;;;6.80;;
75340;SDS011;64931;47.562;18.920;2023-04-24T06:31:47;11.10;;;7.20;;
75340;SDS011;64931;47.562;18.920;2023-04-24T06:34:13;11.30;;;8.10;;
75340;SDS011;64931;47.562;18.920;2023-04-24T06:36:38;10.10;;;6.90;;
75340;SDS011;64931;47.562;18.920;2023-04-24T06:39:04;14.60;;;8.80;;
75340;SDS011;64931;47.562;18.920;2023-04-24T06:41:29;11.50;;;8.60;;
75340;SDS011;64931;47.562;18.920;2023-04-24T06:43:55;13.90;;;8.60;;
75340;SDS011;64931;47.562;18.920;2023-04-24T06:46:21;10.90;;;8.20;;
75340;SDS011;64931;47.562;18.920;2023-04-24T06:48:51;10.40;;;7.30;;
75340;SDS011;64931;47.562;18.920;2023-04-24T06:51:21;10.00;;;7.40;;
75340;SDS011;64931;47.562;18.920;2023-04-24T06:53:53;13.70;;;7.80;;
75340;SDS011;64931;47.562;18.920;2023-04-24T06:56:19;10.20;;;7.60;;
75340;SDS011;64931;47.562;18.920;2023-04-24T06:58:45;10.70;;;8.10;;
75340;SDS011;64931;47.562;18.920;2023-04-24T07:01:11;9.20;;;6.40;;
75340;SDS011;64931;47.562;18.920;2023-04-24T07:03:37;14.40;;;7.60;;
75340;SDS011;64931;47.562;18.920;2023-04-24T07:06:02;16.10;;;8.50;;
75340;SDS011;64931;47.562;18.920;2023-04-24T07:08:29;11.50;;;8.00;;
75340;SDS011;64931;47.562;18.920;2023-04-24T07:10:55;11.90;;;8.30;;
75340;SDS011;64931;47.562;18.920;2023-04-24T07:13:21;14.90;;;9.30;;
75340;SDS011;64931;47.562;18.920;2023-04-24T07:15:47;12.60;;;10.10;;
75340;SDS011;64931;47.562;18.920;2023-04-24T07:18:15;11.50;;;9.40;;
75340;SDS011;64931;47.562;18.920;2023-04-24T07:20:41;14.10;;;10.30;;
75340;SDS011;64931;47.562;18.920;2023-04-24T07:23:06;11.70;;;9.80;;
75340;SDS011;64931;47.562;18.920;2023-04-24T07:25:31;12.00;;;9.00;;
75340;SDS011;64931;47.562;18.920;2023-04-24T07:27:57;15.80;;;11.20;;
75340;SDS011;64931;47.562;18.920;2023-04-24T07:30:22;12.30;;;9.40;;
75340;SDS011;64931;47.562;18.920;2023-04-24T07:32:48;15.30;;;11.10;;
75340;SDS011;64931;47.562;18.920;2023-04-24T07:35:13;13.40;;;10.90;;
75340;SDS011;64931;47.562;18.920;2023-04-24T07:37:39;12.20;;;8.70;;
75340;SDS011;64931;47.562;18.920;2023-04-24T07:40:05;12.50;;;8.10;;
75340;SDS011;64931;47.562;18.920;2023-04-24T07:42:31;10.40;;;7.90;;
75340;SDS011;64931;47.562;18.920;2023-04-24T07:44:59;9.80;;;7.60;;
75340;SDS011;64931;47.562;18.920;2023-04-24T07:47:24;10.10;;;8.10;;
75340;SDS011;64931;47.562;18.920;2023-04-24T07:49:50;9.30;;;6.90;;
75340;SDS011;64931;47.562;18.920;2023-04-24T07:52:16;10.60;;;7.50;;
75340;SDS011;64931;47.562;18.920;2023-04-24T07:54:41;9.40;;;7.20;;
75340;SDS011;64931;47.562;18.920;2023-04-24T07:57:08;13.00;;;7.90;;
75340;SDS011;64931;47.562;18.920;2023-04-24T07:59:33;9.30;;;7.30;;
75340;SDS011;64931;47.562;18.920;2023-04-24T08:01:59;8.00;;;5.50;;
75340;SDS011;64931;47.562;18.920;2023-04-24T08:04:26;8.50;;;6.30;;
75340;SDS011;64931;47.562;18.920;2023-04-24T08:06:51;7.80;;;5.50;;
75340;SDS011;64931;47.562;18.920;2023-04-24T08:09:17;7.90;;;5.40;;
75340;SDS011;64931;47.562;18.920;2023-04-24T08:11:43;10.10;;;5.20;;
75340;SDS011;64931;47.562;18.920;2023-04-24T08:14:08;8.60;;;5.30;;
75340;SDS011;64931;47.562;18.920;2023-04-24T08:16:34;6.60;;;4.60;;
75340;SDS011;64931;47.562;18.920;2023-04-24T08:19:00;8.30;;;5.10;;
75340;SDS011;64931;47.562;18.920;2023-04-24T08:21:25;8.00;;;5.80;;
75340;SDS011;64931;47.562;18.920;2023-04-24T08:23:52;7.90;;;5.60;;
75340;SDS011;64931;47.562;18.920;2023-04-24T08:26:17;9.10;;;6.10;;
75340;SDS011;64931;47.562;18.920;2023-04-24T08:28:43;8.90;;;6.50;;
75340;SDS011;64931;47.562;18.920;2023-04-24T08:31:08;8.10;;;5.70;;
75340;SDS011;64931;47.562;18.920;2023-04-24T08:33:34;9.40;;;5.70;;
75340;SDS011;64931;47.562;18.920;2023-04-24T08:36:03;8.70;;;5.80;;
75340;SDS011;64931;47.562;18.920;2023-04-24T08:38:29;10.70;;;6.40;;
75340;SDS011;64931;47.562;18.920;2023-04-24T08:40:56;8.50;;;6.60;;
75340;SDS011;64931;47.562;18.920;2023-04-24T08:43:23;8.70;;;5.80;;
75340;SDS011;64931;47.562;18.920;2023-04-24T08:45:51;10.80;;;6.10;;
75340;SDS011;64931;47.562;18.920;2023-04-24T08:48:17;7.80;;;5.80;;
75340;SDS011;64931;47.562;18.920;2023-04-24T08:50:43;7.90;;;5.90;;
75340;SDS011;64931;47.562;18.920;2023-04-24T08:53:09;9.00;;;6.80;;
75340;SDS011;64931;47.562;18.920;2023-04-24T08:55:36;9.50;;;6.80;;
75340;SDS011;64931;47.562;18.920;2023-04-24T08:58:02;9.40;;;6.00;;
75340;SDS011;64931;47.562;18.920;2023-04-24T09:00:28;9.40;;;6.70;;
75340;SDS011;64931;47.562;18.920;2023-04-24T09:02:54;9.00;;;6.90;;
75340;SDS011;64931;47.562;18.920;2023-04-24T09:05:21;10.20;;;7.10;;
75340;SDS011;64931;47.562;18.920;2023-04-24T09:07:53;8.10;;;6.60;;
75340;SDS011;64931;47.562;18.920;2023-04-24T09:10:21;9.30;;;6.40;;
75340;SDS011;64931;47.562;18.920;2023-04-24T09:12:47;10.00;;;7.20;;
75340;SDS011;64931;47.562;18.920;2023-04-24T09:15:12;9.20;;;7.20;;
75340;SDS011;64931;47.562;18.920;2023-04-24T09:17:38;12.10;;;6.30;;
75340;SDS011;64931;47.562;18.920;2023-04-24T09:20:04;11.90;;;7.00;;
75340;SDS011;64931;47.562;18.920;2023-04-24T09:22:30;8.40;;;7.10;;
75340;SDS011;64931;47.562;18.920;2023-04-24T09:25:00;8.90;;;7.10;;
75340;SDS011;64931;47.562;18.920;2023-04-24T09:27:28;11.40;;;7.80;;
75340;SDS011;64931;47.562;18.920;2023-04-24T09:29:54;11.30;;;7.30;;
75340;SDS011;64931;47.562;18.920;2023-04-24T09:32:21;9.00;;;6.90;;
75340;SDS011;64931;47.562;18.920;2023-04-24T09:34:47;10.00;;;7.10;;
75340;SDS011;64931;47.562;18.920;2023-04-24T09:37:29;8.80;;;6.90;;
75340;SDS011;64931;47.562;18.920;2023-04-24T09:40:07;10.30;;;7.50;;
75340;SDS011;64931;47.562;18.920;2023-04-24T09:42:45;9.20;;;7.30;;
75340;SDS011;64931;47.562;18.920;2023-04-24T09:45:18;9.60;;;7.60;;
75340;SDS011;64931;47.562;18.920;2023-04-24T09:47:43;12.70;;;7.90;;
75340;SDS011;64931;47.562;18.920;2023-04-24T09:50:13;10.30;;;7.60;;
75340;SDS011;64931;47.562;18.920;2023-04-24T09:52:41;8.50;;;6.90;;
75340;SDS011;64931;47.562;18.920;2023-04-24T09:55:13;11.30;;;8.40;;
75340;SDS011;64931;47.562;18.920;2023-04-24T09:57:47;10.00;;;8.30;;
75340;SDS011;64931;47.562;18.920;2023-04-24T10:00:17;10.50;;;8.40;;
75340;SDS011;64931;47.562;18.920;2023-04-24T10:02:44;11.80;;;9.30;;
75340;SDS011;64931;47.562;18.920;2023-04-24T10:05:10;13.30;;;9.50;;
75340;SDS011;64931;47.562;18.920;2023-04-24T10:07:37;11.90;;;9.80;;
75340;SDS011;64931;47.562;18.920;2023-04-24T10:10:03;11.70;;;9.50;;
75340;SDS011;64931;47.562;18.920;2023-04-24T10:12:28;11.80;;;9.50;;
75340;SDS011;64931;47.562;18.920;2023-04-24T10:14:54;12.10;;;8.90;;
75340;SDS011;64931;47.562;18.920;2023-04-24T10:17:20;11.90;;;9.20;;
75340;SDS011;64931;47.562;18.920;2023-04-24T10:19:46;12.40;;;9.90;;
75340;SDS011;64931;47.562;18.920;2023-04-24T10:22:12;12.30;;;8.30;;
75340;SDS011;64931;47.562;18.920;2023-04-24T10:24:38;11.10;;;7.90;;
75340;SDS011;64931;47.562;18.920;2023-04-24T10:27:03;12.40;;;9.40;;
75340;SDS011;64931;47.562;18.920;2023-04-24T10:29:30;12.80;;;9.40;;
75340;SDS011;64931;47.562;18.920;2023-04-24T10:31:56;11.10;;;9.00;;
75340;SDS011;64931;47.562;18.920;2023-04-24T10:34:22;11.00;;;9.20;;
75340;SDS011;64931;47.562;18.920;2023-04-24T10:36:50;11.00;;;8.00;;
75340;SDS011;64931;47.562;18.920;2023-04-24T10:39:17;11.80;;;9.70;;
75340;SDS011;64931;47.562;18.920;2023-04-24T10:41:43;11.70;;;9.30;;
75340;SDS011;64931;47.562;18.920;2023-04-24T10:44:12;10.60;;;9.50;;
75340;SDS011;64931;47.562;18.920;2023-04-24T10:46:39;12.80;;;10.10;;
75340;SDS011;64931;47.562;18.920;2023-04-24T10:49:08;13.70;;;9.50;;
75340;SDS011;64931;47.562;18.920;2023-04-24T10:59:47;13.50;;;9.40;;
75340;SDS011;64931;47.562;18.920;2023-04-24T11:02:14;14.70;;;10.70;;
75340;SDS011;64931;47.562;18.920;2023-04-24T11:04:40;12.60;;;9.70;;
75340;SDS011;64931;47.562;18.920;2023-04-24T11:07:08;10.60;;;8.40;;
75340;SDS011;64931;47.562;18.920;2023-04-24T11:09:34;12.90;;;10.40;;
75340;SDS011;64931;47.562;18.920;2023-04-24T11:12:05;13.00;;;10.20;;
75340;SDS011;64931;47.562;18.920;2023-04-24T11:17:57;12.00;;;10.70;;
75340;SDS011;64931;47.562;18.920;2023-04-24T11:20:16;15.10;;;10.90;;
75340;SDS011;64931;47.562;18.920;2023-04-24T11:22:42;15.90;;;10.20;;
75340;SDS011;64931;47.562;18.920;2023-04-24T11:25:08;14.70;;;9.50;;
75340;SDS011;64931;47.562;18.920;2023-04-24T11:30:09;13.80;;;9.50;;
75340;SDS011;64931;47.562;18.920;2023-04-24T11:32:39;14.10;;;10.90;;
75340;SDS011;64931;47.562;18.920;2023-04-24T11:35:13;11.70;;;9.50;;
75340;SDS011;64931;47.562;18.920;2023-04-24T11:37:44;11.80;;;9.30;;
75340;SDS011;64931;47.562;18.920;2023-04-24T11:40:11;10.00;;;8.20;;
75340;SDS011;64931;47.562;18.920;2023-04-24T11:42:38;10.70;;;6.90;;
75340;SDS011;64931;47.562;18.920;2023-04-24T11:45:08;7.40;;;5.50;;
75340;SDS011;64931;47.562;18.920;2023-04-24T11:47:35;8.50;;;5.30;;
75340;SDS011;64931;47.562;18.920;2023-04-24T11:50:01;7.90;;;4.90;;
75340;SDS011;64931;47.562;18.920;2023-04-24T11:52:29;7.20;;;5.00;;
75340;SDS011;64931;47.562;18.920;2023-04-24T11:54:55;6.40;;;4.40;;
75340;SDS011;64931;47.562;18.920;2023-04-24T11:57:21;7.10;;;4.60;;
75340;SDS011;64931;47.562;18.920;2023-04-24T11:59:48;7.30;;;4.20;;
75340;SDS011;64931;47.562;18.920;2023-04-24T12:02:23;5.90;;;4.20;;
75340;SDS011;64931;47.562;18.920;2023-04-24T12:04:49;6.70;;;4.20;;
75340;SDS011;64931;47.562;18.920;2023-04-24T12:07:15;6.40;;;4.10;;
75340;SDS011;64931;47.562;18.920;2023-04-24T12:09:45;5.50;;;4.30;;
75340;SDS011;64931;47.562;18.920;2023-04-24T12:12:12;6.60;;;4.60;;
75340;SDS011;64931;47.562;18.920;2023-04-24T12:14:47;6.60;;;4.40;;
75340;SDS011;64931;47.562;18.920;2023-04-24T12:17:14;6.20;;;4.00;;
75340;SDS011;64931;47.562;18.920;2023-04-24T12:19:46;6.20;;;4.20;;
75340;SDS011;64931;47.562;18.920;2023-04-24T12:22:12;8.30;;;4.30;;
75340;SDS011;64931;47.562;18.920;2023-04-24T12:24:58;5.70;;;3.70;;
75340;SDS011;64931;47.562;18.920;2023-04-24T12:27:25;6.30;;;4.40;;
75340;SDS011;64931;47.562;18.920;2023-04-24T12:29:52;5.40;;;3.70;;
75340;SDS011;64931;47.562;18.920;2023-04-24T12:32:19;5.40;;;3.80;;
75340;SDS011;64931;47.562;18.920;2023-04-24T12:34:44;7.60;;;3.70;;
75340;SDS011;64931;47.562;18.920;2023-04-24T12:37:10;9.80;;;4.40;;
75340;SDS011;64931;47.562;18.920;2023-04-24T12:39:37;7.20;;;4.10;;
75340;SDS011;64931;47.562;18.920;2023-04-24T12:42:02;6.00;;;4.10;;
75340;SDS011;64931;47.562;18.920;2023-04-24T12:44:31;7.20;;;4.30;;
75340;SDS011;64931;47.562;18.920;2023-04-24T12:46:59;6.30;;;4.80;;
75340;SDS011;64931;47.562;18.920;2023-04-24T12:49:25;7.30;;;3.90;;
75340;SDS011;64931;47.562;18.920;2023-04-24T12:51:50;6.50;;;4.20;;
75340;SDS011;64931;47.562;18.920;2023-04-24T12:54:16;6.00;;;4.50;;
75340;SDS011;64931;47.562;18.920;2023-04-24T12:56:41;7.50;;;4.80;;
75340;SDS011;64931;47.562;18.920;2023-04-24T12:59:07;6.20;;;4.70;;
75340;SDS011;64931;47.562;18.920;2023-04-24T13:01:32;8.30;;;4.90;;
75340;SDS011;64931;47.562;18.920;2023-04-24T13:03:58;6.50;;;4.70;;
75340;SDS011;64931;47.562;18.920;2023-04-24T13:06:23;6.10;;;4.40;;
75340;SDS011;64931;47.562;18.920;2023-04-24T13:08:48;7.20;;;4.50;;
75340;SDS011;64931;47.562;18.920;2023-04-24T13:11:14;6.80;;;4.60;;
75340;SDS011;64931;47.562;18.920;2023-04-24T13:13:39;9.00;;;5.00;;
75340;SDS011;64931;47.562;18.920;2023-04-24T13:16:05;7.60;;;4.40;;
75340;SDS011;64931;47.562;18.920;2023-04-24T13:18:30;6.80;;;4.70;;
75340;SDS011;64931;47.562;18.920;2023-04-24T13:20:56;6.50;;;4.50;;
75340;SDS011;64931;47.562;18.920;2023-04-24T13:23:21;7.30;;;4.30;;
75340;SDS011;64931;47.562;18.920;2023-04-24T13:25:48;6.70;;;4.10;;
75340;SDS011;64931;47.562;18.920;2023-04-24T13:28:13;8.60;;;4.70;;
75340;SDS011;64931;47.562;18.920;2023-04-24T13:30:38;6.90;;;4.50;;
75340;SDS011;64931;47.562;18.920;2023-04-24T13:33:04;6.10;;;4.50;;
75340;SDS011;64931;47.562;18.920;2023-04-24T13:35:29;7.20;;;4.80;;
75340;SDS011;64931;47.562;18.920;2023-04-24T13:37:55;8.30;;;5.60;;
75340;SDS011;64931;47.562;18.920;2023-04-24T13:40:20;9.20;;;5.70;;
75340;SDS011;64931;47.562;18.920;2023-04-24T13:42:46;8.70;;;6.00;;
75340;SDS011;64931;47.562;18.920;2023-04-24T13:45:11;7.10;;;5.60;;
75340;SDS011;64931;47.562;18.920;2023-04-24T13:47:36;7.40;;;6.10;;
75340;SDS011;64931;47.562;18.920;2023-04-24T13:50:02;8.80;;;6.30;;
75340;SDS011;64931;47.562;18.920;2023-04-24T13:52:28;12.60;;;6.90;;
75340;SDS011;64931;47.562;18.920;2023-04-24T13:54:53;9.00;;;7.30;;
75340;SDS011;64931;47.562;18.920;2023-04-24T13:57:18;11.30;;;7.60;;
75340;SDS011;64931;47.562;18.920;2023-04-24T13:59:44;9.90;;;7.60;;
75340;SDS011;64931;47.562;18.920;2023-04-24T14:02:10;9.20;;;8.20;;
75340;SDS011;64931;47.562;18.920;2023-04-24T14:04:35;10.70;;;8.20;;
75340;SDS011;64931;47.562;18.920;2023-04-24T14:07:01;10.00;;;8.60;;
75340;SDS011;64931;47.562;18.920;2023-04-24T14:09:26;13.60;;;8.90;;
75340;SDS011;64931;47.562;18.920;2023-04-24T14:11:52;12.00;;;9.80;;
75340;SDS011;64931;47.562;18.920;2023-04-24T14:14:17;11.30;;;9.70;;
75340;SDS011;64931;47.562;18.920;2023-04-24T14:16:42;12.50;;;10.80;;
75340;SDS011;64931;47.562;18.920;2023-04-24T14:19:08;11.40;;;10.20;;
75340;SDS011;64931;47.562;18.920;2023-04-24T14:21:33;12.30;;;10.90;;
75340;SDS011;64931;47.562;18.920;2023-04-24T14:23:59;12.50;;;9.80;;
75340;SDS011;64931;47.562;18.920;2023-04-24T14:26:24;12.80;;;10.20;;
75340;SDS011;64931;47.562;18.920;2023-04-24T14:28:50;12.90;;;9.70;;
75340;SDS011;64931;47.562;18.920;2023-04-24T14:31:15;11.10;;;9.50;;
75340;SDS011;64931;47.562;18.920;2023-04-24T14:33:41;11.30;;;8.80;;